sensor_id;sensor_type;location;lat;lon;timestamp;temperature;humidity
65040;HTU21D;51606;45.000;38.612;2022-07-05T00:01:46;16.89;57.67
65040;HTU21D;51606;45.000;38.612;2022-07-05T00:04:12;16.87;57.71
65040;HTU21D;51606;45.000;38.612;2022-07-05T00:06:39;16.87;57.71
65040;HTU21D;51606;45.000;38.612;2022-07-05T00:09:28;16.88;57.66
65040;HTU21D;51606;45.000;38.612;2022-07-05T00:11:55;16.88;57.67
65040;HTU21D;51606;45.000;38.612;2022-07-05T00:14:22;16.90;57.66
65040;HTU21D;51606;45.000;38.612;2022-07-05T00:16:49;16.90;57.64
65040;HTU21D;51606;45.000;38.612;2022-07-05T00:19:16;16.86;57.70
65040;HTU21D;51606;45.000;38.612;2022-07-05T00:21:42;16.81;57.77
65040;HTU21D;51606;45.000;38.612;2022-07-05T00:24:09;16.78;57.88
65040;HTU21D;51606;45.000;38.612;2022-07-05T00:26:35;16.74;57.97
65040;HTU21D;51606;45.000;38.612;2022-07-05T00:29:01;16.70;58.05
65040;HTU21D;51606;45.000;38.612;2022-07-05T00:31:28;16.65;58.13
65040;HTU21D;51606;45.000;38.612;2022-07-05T00:33:55;16.62;58.20
65040;HTU21D;51606;45.000;38.612;2022-07-05T00:36:21;16.58;58.28
65040;HTU21D;51606;45.000;38.612;2022-07-05T00:38:48;16.55;58.35
65040;HTU21D;51606;45.000;38.612;2022-07-05T00:41:14;16.49;58.46
65040;HTU21D;51606;45.000;38.612;2022-07-05T00:44:02;16.46;58.58
65040;HTU21D;51606;45.000;38.612;2022-07-05T00:46:30;16.42;58.57
65040;HTU21D;51606;45.000;38.612;2022-07-05T00:49:00;16.40;58.65
65040;HTU21D;51606;45.000;38.612;2022-07-05T00:51:30;16.35;58.71
65040;HTU21D;51606;45.000;38.612;2022-07-05T00:53:59;16.31;58.78
65040;HTU21D;51606;45.000;38.612;2022-07-05T00:56:26;16.26;58.83
65040;HTU21D;51606;45.000;38.612;2022-07-05T00:58:53;16.24;58.90
65040;HTU21D;51606;45.000;38.612;2022-07-05T01:01:20;16.19;58.96
65040;HTU21D;51606;45.000;38.612;2022-07-05T01:03:47;16.14;59.04
65040;HTU21D;51606;45.000;38.612;2022-07-05T01:06:14;16.10;59.08
65040;HTU21D;51606;45.000;38.612;2022-07-05T01:08:42;16.06;59.13
65040;HTU21D;51606;45.000;38.612;2022-07-05T01:11:10;16.01;59.19
65040;HTU21D;51606;45.000;38.612;2022-07-05T01:13:37;15.96;59.28
65040;HTU21D;51606;45.000;38.612;2022-07-05T01:16:04;15.86;59.41
65040;HTU21D;51606;45.000;38.612;2022-07-05T01:18:32;15.80;59.54
65040;HTU21D;51606;45.000;38.612;2022-07-05T01:20:59;15.73;59.60
65040;HTU21D;51606;45.000;38.612;2022-07-05T01:23:28;15.72;59.60
65040;HTU21D;51606;45.000;38.612;2022-07-05T01:25:56;15.69;59.64
65040;HTU21D;51606;45.000;38.612;2022-07-05T01:28:24;15.65;59.65
65040;HTU21D;51606;45.000;38.612;2022-07-05T01:30:51;15.62;59.67
65040;HTU21D;51606;45.000;38.612;2022-07-05T01:33:18;15.60;59.69
65040;HTU21D;51606;45.000;38.612;2022-07-05T01:35:45;15.59;59.70
65040;HTU21D;51606;45.000;38.612;2022-07-05T01:38:12;15.58;59.72
65040;HTU21D;51606;45.000;38.612;2022-07-05T01:40:38;15.57;59.71
65040;HTU21D;51606;45.000;38.612;2022-07-05T01:43:05;15.56;59.72
65040;HTU21D;51606;45.000;38.612;2022-07-05T01:45:31;15.57;59.70
65040;HTU21D;51606;45.000;38.612;2022-07-05T01:48:10;15.59;59.70
65040;HTU21D;51606;45.000;38.612;2022-07-05T01:50:46;15.61;59.71
65040;HTU21D;51606;45.000;38.612;2022-07-05T01:53:23;15.62;59.71
65040;HTU21D;51606;45.000;38.612;2022-07-05T01:55:50;15.63;59.61
65040;HTU21D;51606;45.000;38.612;2022-07-05T01:58:17;15.67;59.57
65040;HTU21D;51606;45.000;38.612;2022-07-05T02:00:49;15.71;59.57
65040;HTU21D;51606;45.000;38.612;2022-07-05T02:03:17;15.74;59.52
65040;HTU21D;51606;45.000;38.612;2022-07-05T02:05:44;15.75;59.54
65040;HTU21D;51606;45.000;38.612;2022-07-05T02:08:16;15.75;59.54
65040;HTU21D;51606;45.000;38.612;2022-07-05T02:10:44;15.80;59.56
65040;HTU21D;51606;45.000;38.612;2022-07-05T02:13:11;15.82;59.54
65040;HTU21D;51606;45.000;38.612;2022-07-05T02:15:40;15.88;59.51
65040;HTU21D;51606;45.000;38.612;2022-07-05T02:18:09;15.97;59.40
65040;HTU21D;51606;45.000;38.612;2022-07-05T02:20:40;16.10;59.32
65040;HTU21D;51606;45.000;38.612;2022-07-05T02:23:09;16.21;59.16
65040;HTU21D;51606;45.000;38.612;2022-07-05T02:25:37;16.43;58.96
65040;HTU21D;51606;45.000;38.612;2022-07-05T02:28:09;16.67;58.70
65040;HTU21D;51606;45.000;38.612;2022-07-05T02:30:37;16.89;58.49
65040;HTU21D;51606;45.000;38.612;2022-07-05T02:33:04;17.15;58.38
65040;HTU21D;51606;45.000;38.612;2022-07-05T02:35:31;17.51;58.00
65040;HTU21D;51606;45.000;38.612;2022-07-05T02:37:57;17.98;57.35
65040;HTU21D;51606;45.000;38.612;2022-07-05T02:40:24;18.32;56.81
65040;HTU21D;51606;45.000;38.612;2022-07-05T02:42:52;18.51;56.68
65040;HTU21D;51606;45.000;38.612;2022-07-05T02:45:19;18.65;56.68
65040;HTU21D;51606;45.000;38.612;2022-07-05T02:47:52;18.72;56.78
65040;HTU21D;51606;45.000;38.612;2022-07-05T02:50:19;18.81;56.84
65040;HTU21D;51606;45.000;38.612;2022-07-05T02:52:49;18.98;56.87
65040;HTU21D;51606;45.000;38.612;2022-07-05T02:55:17;19.38;56.81
65040;HTU21D;51606;45.000;38.612;2022-07-05T02:57:45;20.11;56.17
65040;HTU21D;51606;45.000;38.612;2022-07-05T03:00:13;20.98;55.20
65040;HTU21D;51606;45.000;38.612;2022-07-05T03:02:44;21.85;54.29
65040;HTU21D;51606;45.000;38.612;2022-07-05T03:05:11;22.68;53.49
65040;HTU21D;51606;45.000;38.612;2022-07-05T03:07:42;23.50;52.78
65040;HTU21D;51606;45.000;38.612;2022-07-05T03:10:08;24.26;52.18
65040;HTU21D;51606;45.000;38.612;2022-07-05T03:12:36;25.01;51.57
65040;HTU21D;51606;45.000;38.612;2022-07-05T03:15:06;25.74;51.00
65040;HTU21D;51606;45.000;38.612;2022-07-05T03:17:32;26.32;50.63
65040;HTU21D;51606;45.000;38.612;2022-07-05T03:19:59;26.53;50.85
65040;HTU21D;51606;45.000;38.612;2022-07-05T03:22:27;27.04;50.66
65040;HTU21D;51606;45.000;38.612;2022-07-05T03:24:54;27.45;50.37
65040;HTU21D;51606;45.000;38.612;2022-07-05T03:27:22;28.00;49.95
65040;HTU21D;51606;45.000;38.612;2022-07-05T03:29:52;28.67;49.34
65040;HTU21D;51606;45.000;38.612;2022-07-05T03:32:22;29.20;48.86
65040;HTU21D;51606;45.000;38.612;2022-07-05T03:34:50;29.78;48.48
65040;HTU21D;51606;45.000;38.612;2022-07-05T03:37:18;30.33;48.15
65040;HTU21D;51606;45.000;38.612;2022-07-05T03:39:45;30.78;47.89
65040;HTU21D;51606;45.000;38.612;2022-07-05T03:42:12;31.21;47.66
65040;HTU21D;51606;45.000;38.612;2022-07-05T03:44:39;31.69;47.35
65040;HTU21D;51606;45.000;38.612;2022-07-05T03:47:05;32.20;46.97
65040;HTU21D;51606;45.000;38.612;2022-07-05T03:49:33;32.72;46.60
65040;HTU21D;51606;45.000;38.612;2022-07-05T03:52:00;33.18;46.31
65040;HTU21D;51606;45.000;38.612;2022-07-05T03:54:26;33.59;46.01
65040;HTU21D;51606;45.000;38.612;2022-07-05T03:56:53;33.97;45.77
65040;HTU21D;51606;45.000;38.612;2022-07-05T03:59:20;34.31;45.57
65040;HTU21D;51606;45.000;38.612;2022-07-05T04:01:47;34.53;45.52
65040;HTU21D;51606;45.000;38.612;2022-07-05T04:04:15;34.94;45.17
65040;HTU21D;51606;45.000;38.612;2022-07-05T04:06:42;35.45;44.67
65040;HTU21D;51606;45.000;38.612;2022-07-05T04:09:09;35.82;44.35
65040;HTU21D;51606;45.000;38.612;2022-07-05T04:11:36;36.19;43.95
65040;HTU21D;51606;45.000;38.612;2022-07-05T04:14:03;36.58;43.58
65040;HTU21D;51606;45.000;38.612;2022-07-05T04:16:30;37.01;43.20
65040;HTU21D;51606;45.000;38.612;2022-07-05T04:18:59;37.40;42.85
65040;HTU21D;51606;45.000;38.612;2022-07-05T04:21:27;37.73;42.58
65040;HTU21D;51606;45.000;38.612;2022-07-05T04:23:54;38.11;42.26
65040;HTU21D;51606;45.000;38.612;2022-07-05T04:26:20;38.38;42.04
65040;HTU21D;51606;45.000;38.612;2022-07-05T04:28:46;38.56;41.93
65040;HTU21D;51606;45.000;38.612;2022-07-05T04:31:20;38.78;41.94
65040;HTU21D;51606;45.000;38.612;2022-07-05T04:33:49;39.02;41.78
65040;HTU21D;51606;45.000;38.612;2022-07-05T04:36:21;39.26;41.61
65040;HTU21D;51606;45.000;38.612;2022-07-05T04:39:00;39.55;41.39
65040;HTU21D;51606;45.000;38.612;2022-07-05T04:41:29;39.96;40.95
65040;HTU21D;51606;45.000;38.612;2022-07-05T04:43:56;40.27;40.67
65040;HTU21D;51606;45.000;38.612;2022-07-05T04:46:22;40.67;40.21
65040;HTU21D;51606;45.000;38.612;2022-07-05T04:48:50;41.04;39.84
65040;HTU21D;51606;45.000;38.612;2022-07-05T04:51:17;41.40;39.47
65040;HTU21D;51606;45.000;38.612;2022-07-05T04:53:43;41.67;39.21
65040;HTU21D;51606;45.000;38.612;2022-07-05T04:56:10;41.85;39.05
65040;HTU21D;51606;45.000;38.612;2022-07-05T04:58:36;42.04;39.00
65040;HTU21D;51606;45.000;38.612;2022-07-05T05:01:03;42.37;38.61
65040;HTU21D;51606;45.000;38.612;2022-07-05T05:03:29;42.68;38.27
65040;HTU21D;51606;45.000;38.612;2022-07-05T05:05:57;42.88;38.10
65040;HTU21D;51606;45.000;38.612;2022-07-05T06:41:39;42.66;34.49
65040;HTU21D;51606;45.000;38.612;2022-07-05T06:44:06;42.09;34.91
65040;HTU21D;51606;45.000;38.612;2022-07-05T06:46:32;41.84;34.95
65040;HTU21D;51606;45.000;38.612;2022-07-05T06:48:59;41.93;34.50
65040;HTU21D;51606;45.000;38.612;2022-07-05T06:51:25;41.77;34.45
65040;HTU21D;51606;45.000;38.612;2022-07-05T06:53:52;41.62;34.47
65040;HTU21D;51606;45.000;38.612;2022-07-05T06:56:18;41.33;34.60
65040;HTU21D;51606;45.000;38.612;2022-07-05T06:58:45;40.97;34.86
65040;HTU21D;51606;45.000;38.612;2022-07-05T07:01:11;40.77;34.93
65040;HTU21D;51606;45.000;38.612;2022-07-05T07:03:38;40.14;35.54
65040;HTU21D;51606;45.000;38.612;2022-07-05T07:06:05;39.73;36.01
65040;HTU21D;51606;45.000;38.612;2022-07-05T07:08:32;39.35;36.36
65040;HTU21D;51606;45.000;38.612;2022-07-05T07:11:16;39.04;36.58
65040;HTU21D;51606;45.000;38.612;2022-07-05T07:13:44;38.95;36.63
65040;HTU21D;51606;45.000;38.612;2022-07-05T07:16:11;39.00;36.45
65040;HTU21D;51606;45.000;38.612;2022-07-05T07:18:37;39.04;36.33
65040;HTU21D;51606;45.000;38.612;2022-07-05T07:21:04;38.80;36.60
65040;HTU21D;51606;45.000;38.612;2022-07-05T07:23:31;38.53;36.89
65040;HTU21D;51606;45.000;38.612;2022-07-05T07:25:58;38.15;37.33
65040;HTU21D;51606;45.000;38.612;2022-07-05T07:28:24;37.51;38.02
65040;HTU21D;51606;45.000;38.612;2022-07-05T07:30:51;37.21;38.32
65040;HTU21D;51606;45.000;38.612;2022-07-05T07:33:18;37.26;38.10
65040;HTU21D;51606;45.000;38.612;2022-07-05T07:35:44;37.14;38.14
65040;HTU21D;51606;45.000;38.612;2022-07-05T07:38:11;37.12;38.05
65040;HTU21D;51606;45.000;38.612;2022-07-05T07:40:38;36.92;38.27
65040;HTU21D;51606;45.000;38.612;2022-07-05T07:43:05;37.01;38.10
65040;HTU21D;51606;45.000;38.612;2022-07-05T07:45:31;37.11;37.91
65040;HTU21D;51606;45.000;38.612;2022-07-05T07:47:58;37.35;37.59
65040;HTU21D;51606;45.000;38.612;2022-07-05T07:50:24;37.45;37.46
65040;HTU21D;51606;45.000;38.612;2022-07-05T07:52:51;37.25;37.67
65040;HTU21D;51606;45.000;38.612;2022-07-05T07:55:18;37.11;37.91
65040;HTU21D;51606;45.000;38.612;2022-07-05T07:57:44;37.10;37.88
65040;HTU21D;51606;45.000;38.612;2022-07-05T08:00:11;37.17;37.74
65040;HTU21D;51606;45.000;38.612;2022-07-05T08:02:38;37.31;37.62
65040;HTU21D;51606;45.000;38.612;2022-07-05T08:05:05;37.45;37.40
65040;HTU21D;51606;45.000;38.612;2022-07-05T08:07:38;37.32;37.58
65040;HTU21D;51606;45.000;38.612;2022-07-05T08:10:06;37.25;37.66
65040;HTU21D;51606;45.000;38.612;2022-07-05T08:12:33;37.14;37.76
65040;HTU21D;51606;45.000;38.612;2022-07-05T08:15:00;37.10;37.76
65040;HTU21D;51606;45.000;38.612;2022-07-05T08:17:27;37.00;37.80
65040;HTU21D;51606;45.000;38.612;2022-07-05T08:19:53;36.74;37.99
65040;HTU21D;51606;45.000;38.612;2022-07-05T08:22:39;36.69;37.98
65040;HTU21D;51606;45.000;38.612;2022-07-05T08:25:06;36.78;37.67
65040;HTU21D;51606;45.000;38.612;2022-07-05T08:27:32;36.64;37.74
65040;HTU21D;51606;45.000;38.612;2022-07-05T08:29:59;36.63;37.74
65040;HTU21D;51606;45.000;38.612;2022-07-05T08:32:26;36.64;37.60
65040;HTU21D;51606;45.000;38.612;2022-07-05T08:34:53;36.52;37.68
65040;HTU21D;51606;45.000;38.612;2022-07-05T08:37:19;36.28;37.92
65040;HTU21D;51606;45.000;38.612;2022-07-05T08:39:46;36.04;38.15
65040;HTU21D;51606;45.000;38.612;2022-07-05T08:42:13;35.88;38.27
65040;HTU21D;51606;45.000;38.612;2022-07-05T08:44:42;35.92;38.17
65040;HTU21D;51606;45.000;38.612;2022-07-05T08:47:11;36.00;38.02
65040;HTU21D;51606;45.000;38.612;2022-07-05T08:49:39;36.23;37.66
65040;HTU21D;51606;45.000;38.612;2022-07-05T08:52:11;36.23;37.60
65040;HTU21D;51606;45.000;38.612;2022-07-05T08:54:39;36.21;37.69
65040;HTU21D;51606;45.000;38.612;2022-07-05T08:57:06;36.06;37.85
65040;HTU21D;51606;45.000;38.612;2022-07-05T08:59:33;35.95;38.01
65040;HTU21D;51606;45.000;38.612;2022-07-05T09:02:00;35.97;37.95
65040;HTU21D;51606;45.000;38.612;2022-07-05T09:04:33;35.95;37.92
65040;HTU21D;51606;45.000;38.612;2022-07-05T09:07:04;35.82;38.07
65040;HTU21D;51606;45.000;38.612;2022-07-05T09:09:34;35.60;38.29
65040;HTU21D;51606;45.000;38.612;2022-07-05T09:12:05;35.60;38.24
65040;HTU21D;51606;45.000;38.612;2022-07-05T09:14:32;35.57;38.21
65040;HTU21D;51606;45.000;38.612;2022-07-05T09:16:59;35.34;38.40
65040;HTU21D;51606;45.000;38.612;2022-07-05T09:19:26;35.18;38.60
65040;HTU21D;51606;45.000;38.612;2022-07-05T09:22:06;35.19;38.49
65040;HTU21D;51606;45.000;38.612;2022-07-05T09:24:52;35.13;38.53
65040;HTU21D;51606;45.000;38.612;2022-07-05T09:27:19;35.25;38.39
65040;HTU21D;51606;45.000;38.612;2022-07-05T09:29:54;35.31;38.29
65040;HTU21D;51606;45.000;38.612;2022-07-05T09:32:25;35.25;38.34
65040;HTU21D;51606;45.000;38.612;2022-07-05T09:34:52;35.41;38.17
65040;HTU21D;51606;45.000;38.612;2022-07-05T09:37:18;35.41;38.14
65040;HTU21D;51606;45.000;38.612;2022-07-05T09:39:45;35.38;38.18
65040;HTU21D;51606;45.000;38.612;2022-07-05T09:42:22;35.31;38.24
65040;HTU21D;51606;45.000;38.612;2022-07-05T09:44:56;35.33;38.25
65040;HTU21D;51606;45.000;38.612;2022-07-05T09:47:23;35.23;38.35
65040;HTU21D;51606;45.000;38.612;2022-07-05T09:49:52;34.93;38.78
65040;HTU21D;51606;45.000;38.612;2022-07-05T09:52:39;34.81;38.83
65040;HTU21D;51606;45.000;38.612;2022-07-05T09:55:10;34.67;39.04
65040;HTU21D;51606;45.000;38.612;2022-07-05T09:57:41;34.76;38.88
65040;HTU21D;51606;45.000;38.612;2022-07-05T10:00:19;34.81;38.80
65040;HTU21D;51606;45.000;38.612;2022-07-05T10:03:04;34.76;38.82
65040;HTU21D;51606;45.000;38.612;2022-07-05T10:05:32;34.71;38.88
65040;HTU21D;51606;45.000;38.612;2022-07-05T10:08:00;34.71;38.82
65040;HTU21D;51606;45.000;38.612;2022-07-05T10:10:30;34.71;38.82
65040;HTU21D;51606;45.000;38.612;2022-07-05T10:12:58;34.74;38.78
65040;HTU21D;51606;45.000;38.612;2022-07-05T10:15:29;34.75;38.69
65040;HTU21D;51606;45.000;38.612;2022-07-05T10:18:03;34.57;38.86
65040;HTU21D;51606;45.000;38.612;2022-07-05T10:20:39;34.56;38.87
65040;HTU21D;51606;45.000;38.612;2022-07-05T10:23:16;34.52;38.88
65040;HTU21D;51606;45.000;38.612;2022-07-05T10:25:46;34.64;38.72
65040;HTU21D;51606;45.000;38.612;2022-07-05T10:28:17;34.63;38.72
65040;HTU21D;51606;45.000;38.612;2022-07-05T10:33:34;34.75;38.58
65040;HTU21D;51606;45.000;38.612;2022-07-05T10:36:03;34.73;38.57
65040;HTU21D;51606;45.000;38.612;2022-07-05T10:38:30;34.79;38.45
65040;HTU21D;51606;45.000;38.612;2022-07-05T10:41:03;34.89;38.37
65040;HTU21D;51606;45.000;38.612;2022-07-05T10:43:31;34.99;38.21
65040;HTU21D;51606;45.000;38.612;2022-07-05T10:45:58;35.01;38.18
65040;HTU21D;51606;45.000;38.612;2022-07-05T10:48:27;35.09;38.10
65040;HTU21D;51606;45.000;38.612;2022-07-05T10:50:58;35.12;38.08
65040;HTU21D;51606;45.000;38.612;2022-07-05T10:53:26;35.03;38.24
65040;HTU21D;51606;45.000;38.612;2022-07-05T10:55:57;34.84;38.44
65040;HTU21D;51606;45.000;38.612;2022-07-05T10:58:28;34.84;38.46
65040;HTU21D;51606;45.000;38.612;2022-07-05T11:06:41;34.89;38.35
65040;HTU21D;51606;45.000;38.612;2022-07-05T11:11:39;34.53;38.69
65040;HTU21D;51606;45.000;38.612;2022-07-05T11:17:11;34.76;38.35
65040;HTU21D;51606;45.000;38.612;2022-07-05T11:20:03;34.82;38.28
65040;HTU21D;51606;45.000;38.612;2022-07-05T11:22:31;34.83;38.27
65040;HTU21D;51606;45.000;38.612;2022-07-05T11:24:59;34.68;38.47
65040;HTU21D;51606;45.000;38.612;2022-07-05T11:27:27;34.64;38.54
65040;HTU21D;51606;45.000;38.612;2022-07-05T11:29:55;34.56;38.63
65040;HTU21D;51606;45.000;38.612;2022-07-05T11:35:17;34.69;38.40
65040;HTU21D;51606;45.000;38.612;2022-07-05T11:37:58;34.76;38.31
65040;HTU21D;51606;45.000;38.612;2022-07-05T11:40:29;34.74;38.34
65040;HTU21D;51606;45.000;38.612;2022-07-05T11:42:56;34.50;38.58
65040;HTU21D;51606;45.000;38.612;2022-07-05T11:45:23;34.38;38.72
65040;HTU21D;51606;45.000;38.612;2022-07-05T11:47:54;34.39;38.69
65040;HTU21D;51606;45.000;38.612;2022-07-05T11:50:32;34.51;38.51
65040;HTU21D;51606;45.000;38.612;2022-07-05T11:53:00;34.64;38.37
65040;HTU21D;51606;45.000;38.612;2022-07-05T11:55:29;34.68;38.34
65040;HTU21D;51606;45.000;38.612;2022-07-05T11:57:57;34.62;38.40
65040;HTU21D;51606;45.000;38.612;2022-07-05T12:00:31;34.47;38.53
65040;HTU21D;51606;45.000;38.612;2022-07-05T12:02:59;34.36;38.72
65040;HTU21D;51606;45.000;38.612;2022-07-05T12:05:30;34.38;38.67
65040;HTU21D;51606;45.000;38.612;2022-07-05T12:07:58;34.39;38.62
65040;HTU21D;51606;45.000;38.612;2022-07-05T12:10:25;34.27;38.75
65040;HTU21D;51606;45.000;38.612;2022-07-05T12:13:10;34.21;38.75
65040;HTU21D;51606;45.000;38.612;2022-07-05T12:15:37;34.16;38.78
65040;HTU21D;51606;45.000;38.612;2022-07-05T12:18:06;34.24;38.69
65040;HTU21D;51606;45.000;38.612;2022-07-05T12:20:35;34.40;38.48
65040;HTU21D;51606;45.000;38.612;2022-07-05T12:23:02;34.41;38.49
65040;HTU21D;51606;45.000;38.612;2022-07-05T12:25:31;34.44;38.51
65040;HTU21D;51606;45.000;38.612;2022-07-05T12:27:59;34.41;38.58
65040;HTU21D;51606;45.000;38.612;2022-07-05T12:30:30;34.36;38.67
65040;HTU21D;51606;45.000;38.612;2022-07-05T12:33:02;34.30;38.78
65040;HTU21D;51606;45.000;38.612;2022-07-05T12:35:42;34.26;38.81
65040;HTU21D;51606;45.000;38.612;2022-07-05T12:38:14;34.26;38.88
65040;HTU21D;51606;45.000;38.612;2022-07-05T12:40:45;34.19;38.90
65040;HTU21D;51606;45.000;38.612;2022-07-05T12:43:16;34.21;38.88
65040;HTU21D;51606;45.000;38.612;2022-07-05T12:48:34;34.12;38.94
65040;HTU21D;51606;45.000;38.612;2022-07-05T12:51:02;34.14;38.95
65040;HTU21D;51606;45.000;38.612;2022-07-05T12:53:29;34.16;38.94
65040;HTU21D;51606;45.000;38.612;2022-07-05T12:56:15;34.09;38.98
65040;HTU21D;51606;45.000;38.612;2022-07-05T12:59:02;33.87;39.17
65040;HTU21D;51606;45.000;38.612;2022-07-05T13:01:34;33.78;39.29
65040;HTU21D;51606;45.000;38.612;2022-07-05T13:04:15;33.70;39.33
65040;HTU21D;51606;45.000;38.612;2022-07-05T13:12:14;33.67;39.18
65040;HTU21D;51606;45.000;38.612;2022-07-05T13:14:44;33.64;39.19
65040;HTU21D;51606;45.000;38.612;2022-07-05T13:17:12;33.61;39.15
65040;HTU21D;51606;45.000;38.612;2022-07-05T13:19:41;33.60;39.17
65040;HTU21D;51606;45.000;38.612;2022-07-05T13:22:08;33.63;39.14
65040;HTU21D;51606;45.000;38.612;2022-07-05T13:24:36;33.59;39.21
65040;HTU21D;51606;45.000;38.612;2022-07-05T13:27:04;33.57;39.23
65040;HTU21D;51606;45.000;38.612;2022-07-05T13:29:31;33.51;39.27
65040;HTU21D;51606;45.000;38.612;2022-07-05T13:31:59;33.41;39.41
65040;HTU21D;51606;45.000;38.612;2022-07-05T13:34:26;33.41;39.38
65040;HTU21D;51606;45.000;38.612;2022-07-05T13:36:53;33.38;39.42
65040;HTU21D;51606;45.000;38.612;2022-07-05T13:39:20;33.28;39.55
65040;HTU21D;51606;45.000;38.612;2022-07-05T13:41:48;33.21;39.65
65040;HTU21D;51606;45.000;38.612;2022-07-05T13:44:15;33.15;39.69
65040;HTU21D;51606;45.000;38.612;2022-07-05T13:46:42;33.09;39.72
65040;HTU21D;51606;45.000;38.612;2022-07-05T13:49:09;33.04;39.73
65040;HTU21D;51606;45.000;38.612;2022-07-05T13:51:36;33.00;39.73
65040;HTU21D;51606;45.000;38.612;2022-07-05T13:54:03;32.90;39.78
65040;HTU21D;51606;45.000;38.612;2022-07-05T13:56:30;32.85;39.80
65040;HTU21D;51606;45.000;38.612;2022-07-05T13:58:58;32.79;39.78
65040;HTU21D;51606;45.000;38.612;2022-07-05T14:01:25;32.73;39.82
65040;HTU21D;51606;45.000;38.612;2022-07-05T14:03:57;32.67;39.88
65040;HTU21D;51606;45.000;38.612;2022-07-05T14:06:29;32.64;39.89
65040;HTU21D;51606;45.000;38.612;2022-07-05T14:08:57;32.60;39.96
65040;HTU21D;51606;45.000;38.612;2022-07-05T14:11:24;32.55;40.05
65040;HTU21D;51606;45.000;38.612;2022-07-05T14:13:54;32.52;40.09
65040;HTU21D;51606;45.000;38.612;2022-07-05T14:16:22;32.50;40.13
65040;HTU21D;51606;45.000;38.612;2022-07-05T14:18:49;32.48;40.14
65040;HTU21D;51606;45.000;38.612;2022-07-05T14:21:17;32.44;40.16
65040;HTU21D;51606;45.000;38.612;2022-07-05T14:23:44;32.40;40.18
65040;HTU21D;51606;45.000;38.612;2022-07-05T14:26:16;32.37;40.26
65040;HTU21D;51606;45.000;38.612;2022-07-05T14:28:43;32.31;40.36
65040;HTU21D;51606;45.000;38.612;2022-07-05T14:31:10;32.24;40.44
65040;HTU21D;51606;45.000;38.612;2022-07-05T14:33:37;32.19;40.46
65040;HTU21D;51606;45.000;38.612;2022-07-05T14:36:06;32.16;40.46
65040;HTU21D;51606;45.000;38.612;2022-07-05T14:38:32;32.09;40.51
65040;HTU21D;51606;45.000;38.612;2022-07-05T14:40:59;32.01;40.57
65040;HTU21D;51606;45.000;38.612;2022-07-05T14:43:25;31.95;40.62
65040;HTU21D;51606;45.000;38.612;2022-07-05T14:45:52;31.88;40.68
65040;HTU21D;51606;45.000;38.612;2022-07-05T14:48:19;31.86;40.72
65040;HTU21D;51606;45.000;38.612;2022-07-05T14:50:47;31.78;40.75
65040;HTU21D;51606;45.000;38.612;2022-07-05T14:53:15;31.72;40.79
65040;HTU21D;51606;45.000;38.612;2022-07-05T14:55:43;31.67;40.86
65040;HTU21D;51606;45.000;38.612;2022-07-05T14:58:10;31.59;40.91
65040;HTU21D;51606;45.000;38.612;2022-07-05T15:00:37;31.54;40.97
65040;HTU21D;51606;45.000;38.612;2022-07-05T15:03:03;31.51;41.04
65040;HTU21D;51606;45.000;38.612;2022-07-05T17:03:24;27.28;46.42
65040;HTU21D;51606;45.000;38.612;2022-07-05T17:05:51;27.21;46.53
65040;HTU21D;51606;45.000;38.612;2022-07-05T17:08:17;27.13;46.61
65040;HTU21D;51606;45.000;38.612;2022-07-05T17:10:44;27.06;46.70
65040;HTU21D;51606;45.000;38.612;2022-07-05T17:13:11;26.96;46.82
65040;HTU21D;51606;45.000;38.612;2022-07-05T17:15:39;26.83;46.96
65040;HTU21D;51606;45.000;38.612;2022-07-05T17:18:06;26.69;47.12
65040;HTU21D;51606;45.000;38.612;2022-07-05T17:20:33;26.58;47.28
65040;HTU21D;51606;45.000;38.612;2022-07-05T17:22:59;26.46;47.40
65040;HTU21D;51606;45.000;38.612;2022-07-05T17:25:26;26.35;47.54
65040;HTU21D;51606;45.000;38.612;2022-07-05T17:27:52;26.25;47.64
65040;HTU21D;51606;45.000;38.612;2022-07-05T17:30:19;26.17;47.74
65040;HTU21D;51606;45.000;38.612;2022-07-05T17:32:46;26.08;47.82
65040;HTU21D;51606;45.000;38.612;2022-07-05T17:35:13;26.02;47.89
65040;HTU21D;51606;45.000;38.612;2022-07-05T17:37:40;25.93;47.96
65040;HTU21D;51606;45.000;38.612;2022-07-05T17:40:07;25.82;48.11
65040;HTU21D;51606;45.000;38.612;2022-07-05T17:42:34;25.72;48.25
65040;HTU21D;51606;45.000;38.612;2022-07-05T17:45:01;25.53;48.53
65040;HTU21D;51606;45.000;38.612;2022-07-05T17:47:28;25.40;48.68
65040;HTU21D;51606;45.000;38.612;2022-07-05T17:49:55;25.31;48.81
65040;HTU21D;51606;45.000;38.612;2022-07-05T17:52:22;25.19;48.94
65040;HTU21D;51606;45.000;38.612;2022-07-05T17:54:49;25.08;49.06
65040;HTU21D;51606;45.000;38.612;2022-07-05T17:57:16;24.99;49.17
65040;HTU21D;51606;45.000;38.612;2022-07-05T17:59:42;24.90;49.31
65040;HTU21D;51606;45.000;38.612;2022-07-05T18:02:09;24.82;49.44
65040;HTU21D;51606;45.000;38.612;2022-07-05T18:04:36;24.74;49.57
65040;HTU21D;51606;45.000;38.612;2022-07-05T18:07:03;24.68;49.68
65040;HTU21D;51606;45.000;38.612;2022-07-05T18:09:29;24.63;49.73
65040;HTU21D;51606;45.000;38.612;2022-07-05T18:11:56;24.61;49.82
65040;HTU21D;51606;45.000;38.612;2022-07-05T18:14:23;24.59;49.89
65040;HTU21D;51606;45.000;38.612;2022-07-05T18:16:50;24.55;49.95
65040;HTU21D;51606;45.000;38.612;2022-07-05T18:19:16;24.50;50.04
65040;HTU21D;51606;45.000;38.612;2022-07-05T18:21:43;24.44;50.14
65040;HTU21D;51606;45.000;38.612;2022-07-05T18:24:09;24.39;50.24
65040;HTU21D;51606;45.000;38.612;2022-07-05T18:26:36;24.29;50.39
65040;HTU21D;51606;45.000;38.612;2022-07-05T18:29:03;24.26;50.44
65040;HTU21D;51606;45.000;38.612;2022-07-05T18:31:30;24.24;50.44
65040;HTU21D;51606;45.000;38.612;2022-07-05T18:33:57;24.21;50.48
65040;HTU21D;51606;45.000;38.612;2022-07-05T18:36:25;24.18;50.48
65040;HTU21D;51606;45.000;38.612;2022-07-05T18:38:52;24.08;50.65
65040;HTU21D;51606;45.000;38.612;2022-07-05T18:41:19;23.89;50.95
65040;HTU21D;51606;45.000;38.612;2022-07-05T18:43:46;23.76;51.18
65040;HTU21D;51606;45.000;38.612;2022-07-05T18:46:12;23.69;51.30
65040;HTU21D;51606;45.000;38.612;2022-07-05T18:48:39;23.65;51.37
65040;HTU21D;51606;45.000;38.612;2022-07-05T18:51:06;23.62;51.35
65040;HTU21D;51606;45.000;38.612;2022-07-05T18:53:32;23.60;51.36
65040;HTU21D;51606;45.000;38.612;2022-07-05T18:55:59;23.57;51.42
65040;HTU21D;51606;45.000;38.612;2022-07-05T18:58:26;23.50;51.50
65040;HTU21D;51606;45.000;38.612;2022-07-05T19:00:53;23.42;51.64
65040;HTU21D;51606;45.000;38.612;2022-07-05T19:03:19;23.36;51.74
65040;HTU21D;51606;45.000;38.612;2022-07-05T19:05:46;23.31;51.78
65040;HTU21D;51606;45.000;38.612;2022-07-05T19:08:33;23.31;51.74